Terminal Aerodrome Forecast
Issued by NWS Dodge City, KS

Home | Current Version | Previous Version | Text Only | Print | Product List | Glossary On
Versions: 1 2 3 4 5 6 7 8 9 10 11 12 13 14 15 16 17 18 19 20 21 22 23 24 25 26 27 28 29 30 31 32 33 34 35 36 37 38 39 40 41 42
000
FTUS43 KDDC 221720
TAFDDC
TAF
KDDC 221720Z 2218/2318 12009KT P6SM OVC022
     FM221900 15015G25KT P6SM OVC025
     FM230600 15012KT 3SM BR OVC010
     FM230900 15014KT 1/2SM FG OVC003
     FM231500 17015G25KT 1SM BR OVC005
     FM231700 18030G40KT P6SM SCT030=

USA.gov is the U.S. government's official web portal to all federal, state and local government web resources and services.